Time;durP1;ratioP1;P1;durP2;ratioP2;P2;SDS_P1;SDS_P2;PMS_P1;PMS_P2;Temp;Humidity;BMP_temperature;BMP_pressure;BME280_temperature;BME280_humidity;BME280_pressure;Samples;Min_cycle;Max_cycle;Signal;HPM_P1;HPM_P2
2021/09/18 00:01:53;;;;;;;;;;;12.90;99.90;;;;;;5085937;28;19912;-77
2021/09/18 00:04:19;;;;;;;;;;;12.90;99.90;;;;;;5076723;28;19920;-77
2021/09/18 00:06:45;;;;;;;;;;;12.90;99.90;;;;;;5065607;28;20220;-77
2021/09/18 00:09:10;;;;;;;;;;;13.00;99.90;;;;;;5075209;28;20364;-77
2021/09/18 00:11:36;;;;;;;;;;;12.90;99.90;;;;;;5056991;28;19916;-77
2021/09/18 00:14:01;;;;;;;;;;;13.00;99.90;;;;;;5087452;28;20321;-78
2021/09/18 00:16:27;;;;;;;;;;;13.00;99.90;;;;;;5074449;28;19927;-77
2021/09/18 00:18:52;;;;;;;;;;;12.90;99.90;;;;;;5076295;28;19912;-76
2021/09/18 00:21:18;;;;;;;;;;;12.90;99.90;;;;;;5076757;28;19996;-77
2021/09/18 00:23:43;;;;;;;;;;;12.90;99.90;;;;;;5089781;28;19927;-79
2021/09/18 00:26:09;;;;;;;;;;;12.80;99.90;;;;;;5075994;28;19909;-77
2021/09/18 00:28:35;;;;;;;;;;;12.70;99.90;;;;;;5086262;28;19962;-78
2021/09/18 00:31:01;;;;;;;;;;;12.50;99.90;;;;;;5076894;28;19916;-78
2021/09/18 00:33:26;;;;;;;;;;;12.50;99.90;;;;;;5085161;28;19918;-78
2021/09/18 00:35:52;;;;;;;;;;;12.50;99.90;;;;;;5077776;28;19915;-78
2021/09/18 00:38:17;;;;;;;;;;;12.40;99.90;;;;;;5092840;28;19995;-78
2021/09/18 00:40:43;;;;;;;;;;;12.40;99.90;;;;;;5076905;28;19970;-78
2021/09/18 00:43:09;;;;;;;;;;;12.30;99.90;;;;;;5060411;28;19921;-75
2021/09/18 00:45:34;;;;;;;;;;;12.40;99.90;;;;;;5080755;28;19908;-78
2021/09/18 00:48:00;;;;;;;;;;;12.50;99.90;;;;;;5092934;28;20260;-77
2021/09/18 00:50:26;;;;;;;;;;;12.50;99.90;;;;;;5068276;28;19916;-78
2021/09/18 00:52:51;;;;;;;;;;;12.50;99.90;;;;;;5065784;28;19966;-77
2021/09/18 00:55:17;;;;;;;;;;;12.50;99.90;;;;;;5089591;28;19949;-78
2021/09/18 00:57:43;;;;;;;;;;;12.50;99.90;;;;;;5076347;28;20010;-77
2021/09/18 01:00:10;;;;;;;;;;;12.50;99.90;;;;;;5074340;28;19917;-77
2021/09/18 01:02:36;;;;;;;;;;;12.40;99.90;;;;;;5088992;28;20009;-78
2021/09/18 01:05:04;;;;;;;;;;;12.30;99.90;;;;;;5074706;28;20458;-78
2021/09/18 01:07:30;;;;;;;;;;;12.30;99.90;;;;;;5074035;28;20261;-77
2021/09/18 01:09:56;;;;;;;;;;;12.30;99.90;;;;;;5066970;28;19920;-78
2021/09/18 01:12:22;;;;;;;;;;;12.30;99.90;;;;;;5070361;28;19913;-77
2021/09/18 01:14:48;;;;;;;;;;;12.30;99.90;;;;;;5075061;28;19934;-77
2021/09/18 01:17:15;;;;;;;;;;;12.20;99.90;;;;;;5073817;28;19927;-77
2021/09/18 01:19:41;;;;;;;;;;;12.30;99.90;;;;;;5068099;28;19917;-77
2021/09/18 01:22:07;;;;;;;;;;;12.30;99.90;;;;;;5065827;28;19917;-77
2021/09/18 01:24:32;;;;;;;;;;;12.40;99.90;;;;;;5079503;28;19924;-76
2021/09/18 01:26:58;;;;;;;;;;;12.40;99.90;;;;;;5091049;28;19923;-77
2021/09/18 01:29:24;;;;;;;;;;;12.40;99.90;;;;;;5090598;28;19908;-77
2021/09/18 01:31:49;;;;;;;;;;;12.40;99.90;;;;;;5073210;28;19912;-77
2021/09/18 01:34:19;;;;;;;;;;;12.50;99.90;;;;;;5076111;28;19912;-77
2021/09/18 01:36:45;;;;;;;;;;;12.40;99.90;;;;;;5078865;28;20412;-76
2021/09/18 01:39:11;;;;;;;;;;;12.30;99.90;;;;;;5072691;28;19912;-77
2021/09/18 01:41:37;;;;;;;;;;;12.20;99.90;;;;;;5081898;28;20257;-77
2021/09/18 01:44:03;;;;;;;;;;;12.10;99.90;;;;;;5080262;28;19920;-77
2021/09/18 01:46:29;;;;;;;;;;;12.10;99.90;;;;;;5060676;28;19913;-78
2021/09/18 01:48:54;;;;;;;;;;;12.10;99.90;;;;;;5074468;28;20305;-77
2021/09/18 01:51:20;;;;;;;;;;;12.10;99.90;;;;;;5075459;28;19922;-77
2021/09/18 01:53:46;;;;;;;;;;;12.00;99.90;;;;;;5070164;28;19920;-77
2021/09/18 01:56:11;;;;;;;;;;;12.00;99.90;;;;;;5072778;28;19912;-77
2021/09/18 01:58:37;;;;;;;;;;;12.00;99.90;;;;;;5076714;28;20320;-77
2021/09/18 02:01:03;;;;;;;;;;;12.10;99.90;;;;;;5074191;28;19916;-77
2021/09/18 02:03:29;;;;;;;;;;;12.20;99.90;;;;;;5078540;28;19965;-77
2021/09/18 02:05:55;;;;;;;;;;;12.20;99.90;;;;;;5083710;28;19916;-78
2021/09/18 02:08:22;;;;;;;;;;;12.10;99.90;;;;;;5068713;28;19916;-77
2021/09/18 02:10:47;;;;;;;;;;;12.10;99.90;;;;;;5078062;28;19909;-78
2021/09/18 02:13:13;;;;;;;;;;;12.10;99.90;;;;;;5074811;28;20309;-78
2021/09/18 02:15:39;;;;;;;;;;;12.20;99.90;;;;;;5064383;28;20047;-73
2021/09/18 02:18:05;;;;;;;;;;;12.20;99.90;;;;;;5068264;28;19920;-78
2021/09/18 02:20:31;;;;;;;;;;;12.20;99.90;;;;;;5072674;28;19916;-77
2021/09/18 02:22:57;;;;;;;;;;;12.10;99.90;;;;;;5073018;28;19919;-77
2021/09/18 02:25:22;;;;;;;;;;;12.00;99.90;;;;;;5064606;28;19913;-78
2021/09/18 02:27:48;;;;;;;;;;;12.00;99.90;;;;;;5056872;28;20335;-78
2021/09/18 02:30:15;;;;;;;;;;;11.90;99.90;;;;;;5067601;28;20396;-78
2021/09/18 02:32:41;;;;;;;;;;;11.90;99.90;;;;;;5069974;28;19913;-77
2021/09/18 02:35:09;;;;;;;;;;;11.90;99.90;;;;;;5081439;28;19908;-78
2021/09/18 02:37:35;;;;;;;;;;;11.90;99.90;;;;;;5074821;28;19917;-77
2021/09/18 02:40:00;;;;;;;;;;;11.90;99.90;;;;;;5072339;28;19988;-77
2021/09/18 02:42:26;;;;;;;;;;;12.00;99.90;;;;;;5074680;28;20011;-77
2021/09/18 02:44:51;;;;;;;;;;;11.90;99.90;;;;;;5073483;28;20325;-76
2021/09/18 02:47:17;;;;;;;;;;;11.90;99.90;;;;;;5070888;28;19912;-76
2021/09/18 02:49:42;;;;;;;;;;;11.90;99.90;;;;;;5072146;28;19970;-77
2021/09/18 02:52:08;;;;;;;;;;;11.90;99.90;;;;;;5066304;28;19923;-77
2021/09/18 02:54:33;;;;;;;;;;;11.90;99.90;;;;;;5077870;28;20254;-77
2021/09/18 02:56:59;;;;;;;;;;;11.90;99.90;;;;;;5072502;28;19924;-77
2021/09/18 02:59:25;;;;;;;;;;;11.80;99.90;;;;;;5070687;28;20372;-77
2021/09/18 03:01:50;;;;;;;;;;;11.80;99.90;;;;;;5078729;28;19908;-77
2021/09/18 03:04:16;;;;;;;;;;;11.80;99.90;;;;;;5063922;28;19908;-78
2021/09/18 03:06:41;;;;;;;;;;;11.80;99.90;;;;;;5076578;28;19919;-77
2021/09/18 03:09:07;;;;;;;;;;;11.70;99.90;;;;;;5070847;28;19913;-78
2021/09/18 03:11:32;;;;;;;;;;;11.70;99.90;;;;;;5074501;28;19920;-77
2021/09/18 03:13:58;;;;;;;;;;;11.60;99.90;;;;;;5078163;28;19916;-78
2021/09/18 03:16:24;;;;;;;;;;;11.70;99.90;;;;;;5070123;28;19918;-77
2021/09/18 03:18:49;;;;;;;;;;;11.60;99.90;;;;;;5072631;28;19920;-76
2021/09/18 03:21:15;;;;;;;;;;;11.60;99.90;;;;;;5072088;28;19920;-77
2021/09/18 03:23:40;;;;;;;;;;;11.60;99.90;;;;;;5057194;28;19978;-77
2021/09/18 03:26:06;;;;;;;;;;;11.50;99.90;;;;;;5057634;28;20015;-77
2021/09/18 03:28:32;;;;;;;;;;;11.40;99.90;;;;;;5057182;28;19913;-76
2021/09/18 03:30:58;;;;;;;;;;;11.40;99.90;;;;;;5057371;28;19970;-77
2021/09/18 03:33:23;;;;;;;;;;;11.50;99.90;;;;;;5056353;28;19908;-76
2021/09/18 03:35:50;;;;;;;;;;;11.50;99.90;;;;;;5053228;28;19913;-76
2021/09/18 03:38:15;;;;;;;;;;;11.50;99.90;;;;;;5056770;28;19958;-77
2021/09/18 03:40:41;;;;;;;;;;;11.40;99.90;;;;;;5056406;28;20371;-77
2021/09/18 03:43:06;;;;;;;;;;;11.40;99.90;;;;;;5057402;28;19912;-77
2021/09/18 03:45:32;;;;;;;;;;;11.50;99.90;;;;;;5057306;28;19922;-77
2021/09/18 03:47:57;;;;;;;;;;;11.50;99.90;;;;;;5049970;28;19914;-76
2021/09/18 03:50:23;;;;;;;;;;;11.50;99.90;;;;;;5035280;28;19948;-77
2021/09/18 03:52:49;;;;;;;;;;;11.40;99.90;;;;;;5041938;28;19924;-77
2021/09/18 03:55:15;;;;;;;;;;;11.40;99.90;;;;;;5030565;28;19912;-77
2021/09/18 03:57:41;;;;;;;;;;;11.40;99.90;;;;;;5024613;28;20205;-76
2021/09/18 04:00:07;;;;;;;;;;;11.50;99.90;;;;;;5056975;28;19963;-77
2021/09/18 04:02:32;;;;;;;;;;;11.50;99.90;;;;;;5056576;28;19922;-77
2021/09/18 04:04:58;;;;;;;;;;;11.50;99.90;;;;;;5055455;28;19929;-77
2021/09/18 04:07:23;;;;;;;;;;;11.50;99.90;;;;;;5057275;28;19938;-77
2021/09/18 04:09:49;;;;;;;;;;;11.40;99.90;;;;;;5035285;28;19944;-74
2021/09/18 04:12:15;;;;;;;;;;;11.40;99.90;;;;;;5048819;28;19913;-77
2021/09/18 04:14:40;;;;;;;;;;;11.30;99.90;;;;;;5056107;28;19909;-77
2021/09/18 04:17:06;;;;;;;;;;;11.30;99.90;;;;;;5057100;28;19913;-78
2021/09/18 04:19:31;;;;;;;;;;;11.30;99.90;;;;;;5056078;28;19917;-78
2021/09/18 04:21:57;;;;;;;;;;;11.30;99.90;;;;;;5037905;28;19920;-79
2021/09/18 04:24:22;;;;;;;;;;;11.40;99.90;;;;;;5039872;28;19949;-77
2021/09/18 04:26:48;;;;;;;;;;;11.40;99.90;;;;;;5055419;28;20232;-78
2021/09/18 04:29:14;;;;;;;;;;;11.40;99.90;;;;;;5055719;28;19913;-78
2021/09/18 04:31:41;;;;;;;;;;;11.50;99.90;;;;;;5056097;28;19909;-76
2021/09/18 04:34:07;;;;;;;;;;;11.60;99.90;;;;;;5041756;28;19958;-78
2021/09/18 04:36:33;;;;;;;;;;;11.50;99.90;;;;;;5056466;28;19916;-77
2021/09/18 04:38:58;;;;;;;;;;;11.50;99.90;;;;;;5055693;28;20283;-77
2021/09/18 04:41:26;;;;;;;;;;;11.50;99.90;;;;;;5056684;28;19967;-77
2021/09/18 04:43:52;;;;;;;;;;;11.50;99.90;;;;;;5055119;28;20299;-77
2021/09/18 04:46:18;;;;;;;;;;;11.40;99.90;;;;;;5052547;28;19952;-78
2021/09/18 04:48:43;;;;;;;;;;;11.40;99.90;;;;;;5055508;28;19970;-77
2021/09/18 04:51:09;;;;;;;;;;;11.50;99.90;;;;;;5041879;28;19913;-74
2021/09/18 04:53:34;;;;;;;;;;;11.60;99.90;;;;;;5056109;28;19995;-77
2021/09/18 04:56:00;;;;;;;;;;;11.70;99.90;;;;;;5033648;28;20324;-76
2021/09/18 04:58:25;;;;;;;;;;;11.70;99.90;;;;;;5038033;28;19913;-77
2021/09/18 05:00:51;;;;;;;;;;;11.60;99.90;;;;;;5033423;28;19913;-77
2021/09/18 05:03:16;;;;;;;;;;;11.60;99.90;;;;;;5045521;28;19935;-78
2021/09/18 05:05:43;;;;;;;;;;;11.50;99.90;;;;;;5055957;28;20304;-76
2021/09/18 05:08:09;;;;;;;;;;;11.50;99.90;;;;;;5056116;28;19983;-77
2021/09/18 05:10:35;;;;;;;;;;;11.40;99.90;;;;;;5055115;28;20215;-78
2021/09/18 05:13:02;;;;;;;;;;;11.40;99.90;;;;;;5055775;28;19909;-77
2021/09/18 05:15:28;;;;;;;;;;;11.40;99.90;;;;;;5039235;28;20015;-78
2021/09/18 05:17:54;;;;;;;;;;;11.40;99.90;;;;;;5053117;28;20039;-78
2021/09/18 05:20:20;;;;;;;;;;;11.40;99.90;;;;;;5044712;28;19913;-76
2021/09/18 05:22:45;;;;;;;;;;;11.40;99.90;;;;;;5055386;28;19921;-78
2021/09/18 05:25:11;;;;;;;;;;;11.50;99.90;;;;;;5047322;28;20345;-78
2021/09/18 05:27:36;;;;;;;;;;;11.60;99.90;;;;;;5062165;28;19913;-78
2021/09/18 05:30:03;;;;;;;;;;;11.70;99.90;;;;;;5045641;28;19917;-78
2021/09/18 05:32:28;;;;;;;;;;;11.90;99.90;;;;;;5059030;28;19998;-77
2021/09/18 05:34:54;;;;;;;;;;;11.90;99.90;;;;;;5064658;28;20296;-78
2021/09/18 05:37:19;;;;;;;;;;;12.10;99.90;;;;;;5044959;28;19936;-77
2021/09/18 05:39:45;;;;;;;;;;;12.10;99.90;;;;;;5064028;28;19954;-77
2021/09/18 05:42:10;;;;;;;;;;;12.10;99.90;;;;;;5058613;28;19921;-77
2021/09/18 05:44:36;;;;;;;;;;;12.10;99.90;;;;;;5053424;28;19919;-78
2021/09/18 05:47:01;;;;;;;;;;;12.10;99.90;;;;;;5049560;28;20007;-78
2021/09/18 05:49:27;;;;;;;;;;;12.00;99.90;;;;;;5054822;28;19909;-78
2021/09/18 05:51:53;;;;;;;;;;;12.00;99.90;;;;;;5037678;28;20338;-78
2021/09/18 05:54:18;;;;;;;;;;;12.00;99.90;;;;;;5040664;28;20376;-79
2021/09/18 05:56:44;;;;;;;;;;;12.00;99.90;;;;;;5054670;28;19960;-77
2021/09/18 05:59:09;;;;;;;;;;;12.10;99.90;;;;;;5054284;28;19917;-77
2021/09/18 06:01:35;;;;;;;;;;;12.10;99.90;;;;;;5029621;28;19917;-78
2021/09/18 06:04:00;;;;;;;;;;;12.10;99.90;;;;;;5048377;28;19932;-78
2021/09/18 06:06:26;;;;;;;;;;;12.10;99.90;;;;;;5054738;28;19955;-79
2021/09/18 06:08:52;;;;;;;;;;;12.10;99.90;;;;;;5054723;28;19916;-78
2021/09/18 06:11:18;;;;;;;;;;;12.20;99.90;;;;;;5053998;28;20004;-78
2021/09/18 06:13:43;;;;;;;;;;;12.20;99.90;;;;;;5036993;28;19915;-78
2021/09/18 06:16:09;;;;;;;;;;;12.30;99.90;;;;;;5056706;28;19966;-78
2021/09/18 06:18:35;;;;;;;;;;;12.30;99.90;;;;;;5063119;28;19917;-78
2021/09/18 06:21:03;;;;;;;;;;;12.40;99.90;;;;;;5042582;28;19924;-77
2021/09/18 06:23:29;;;;;;;;;;;12.50;99.90;;;;;;5039121;28;20236;-76
2021/09/18 06:25:55;;;;;;;;;;;12.50;99.90;;;;;;5065015;28;20319;-77
2021/09/18 06:28:20;;;;;;;;;;;12.60;99.90;;;;;;5062535;28;19920;-75
2021/09/18 06:30:46;;;;;;;;;;;12.60;99.90;;;;;;5061552;28;19998;-77
2021/09/18 06:33:11;;;;;;;;;;;12.70;99.90;;;;;;5054983;28;19913;-77
2021/09/18 06:35:37;;;;;;;;;;;12.70;99.90;;;;;;5042116;28;19916;-77
2021/09/18 06:38:03;;;;;;;;;;;12.80;99.90;;;;;;5062952;28;19927;-77
2021/09/18 06:40:29;;;;;;;;;;;12.80;99.90;;;;;;5061391;28;20021;-75
2021/09/18 06:42:55;;;;;;;;;;;12.80;99.90;;;;;;5046094;28;19916;-77
2021/09/18 06:45:20;;;;;;;;;;;12.90;99.90;;;;;;5061799;28;19956;-76
2021/09/18 06:47:46;;;;;;;;;;;13.00;99.90;;;;;;5063643;28;19922;-77
2021/09/18 06:50:12;;;;;;;;;;;13.10;99.90;;;;;;5039713;28;19921;-77
2021/09/18 06:52:37;;;;;;;;;;;13.20;99.90;;;;;;5062600;28;20281;-77
2021/09/18 06:55:03;;;;;;;;;;;13.30;99.90;;;;;;5063385;28;19916;-77
2021/09/18 06:57:32;;;;;;;;;;;13.40;99.90;;;;;;5041820;28;20316;-76
2021/09/18 06:59:57;;;;;;;;;;;13.60;99.90;;;;;;5040941;28;19917;-77
2021/09/18 07:02:23;;;;;;;;;;;13.80;99.90;;;;;;5057499;28;20051;-77
2021/09/18 07:04:48;;;;;;;;;;;14.10;99.90;;;;;;5060494;28;19942;-77
2021/09/18 07:07:14;;;;;;;;;;;14.20;99.90;;;;;;5061449;28;20330;-77
2021/09/18 07:09:39;;;;;;;;;;;14.30;99.90;;;;;;5061582;28;19912;-77
2021/09/18 07:12:05;;;;;;;;;;;14.30;99.90;;;;;;5062152;28;19917;-77
2021/09/18 07:14:31;;;;;;;;;;;14.40;99.90;;;;;;5061686;28;20004;-77
2021/09/18 07:16:56;;;;;;;;;;;14.50;99.90;;;;;;5055468;28;19920;-77
2021/09/18 07:19:22;;;;;;;;;;;14.60;99.90;;;;;;5054039;28;19939;-76
2021/09/18 07:21:47;;;;;;;;;;;14.80;99.90;;;;;;5031868;28;19924;-77
2021/09/18 07:24:13;;;;;;;;;;;14.90;99.90;;;;;;5036843;28;19914;-77
2021/09/18 07:26:38;;;;;;;;;;;15.10;99.90;;;;;;5051535;28;20346;-77
2021/09/18 07:29:04;;;;;;;;;;;15.30;99.90;;;;;;5053248;28;19954;-77
2021/09/18 07:31:30;;;;;;;;;;;15.50;99.90;;;;;;5048397;28;19920;-76
2021/09/18 07:33:56;;;;;;;;;;;15.60;99.90;;;;;;5036814;28;19915;-77
2021/09/18 07:36:21;;;;;;;;;;;15.80;99.90;;;;;;5056104;28;19916;-76
2021/09/18 07:38:48;;;;;;;;;;;16.10;99.90;;;;;;5052389;28;19951;-78
2021/09/18 07:41:15;;;;;;;;;;;16.40;99.90;;;;;;5042248;28;19917;-78
2021/09/18 07:43:41;;;;;;;;;;;16.70;99.90;;;;;;5057797;28;19916;-76
2021/09/18 07:46:06;;;;;;;;;;;17.00;99.90;;;;;;5057568;28;19913;-78
2021/09/18 07:48:32;;;;;;;;;;;17.00;99.90;;;;;;5056595;28;19913;-78
2021/09/18 07:50:57;;;;;;;;;;;16.90;99.90;;;;;;5042434;28;19924;-78
2021/09/18 07:53:23;;;;;;;;;;;16.70;99.90;;;;;;5057733;28;19912;-77
2021/09/18 07:55:49;;;;;;;;;;;16.70;99.90;;;;;;5056467;28;19983;-77
2021/09/18 07:58:16;;;;;;;;;;;16.80;99.90;;;;;;5057544;28;20000;-78
2021/09/18 08:00:41;;;;;;;;;;;16.90;99.90;;;;;;5037335;28;19913;-78
2021/09/18 08:03:07;;;;;;;;;;;17.00;99.90;;;;;;5046246;28;19940;-78
2021/09/18 08:05:35;;;;;;;;;;;17.10;99.90;;;;;;5057305;28;19969;-78
2021/09/18 08:08:01;;;;;;;;;;;17.10;99.90;;;;;;5053904;28;19967;-77
2021/09/18 08:10:27;;;;;;;;;;;17.20;99.90;;;;;;5048158;28;19912;-78
2021/09/18 08:12:53;;;;;;;;;;;17.40;99.90;;;;;;5069810;28;20300;-78
2021/09/18 08:15:19;;;;;;;;;;;17.70;99.90;;;;;;5056807;28;19920;-78
2021/09/18 08:17:46;;;;;;;;;;;17.90;99.90;;;;;;5051895;28;20314;-78
2021/09/18 08:20:16;;;;;;;;;;;18.10;99.90;;;;;;5046271;28;20304;-75
2021/09/18 08:22:42;;;;;;;;;;;18.40;99.90;;;;;;5056867;28;20308;-78
2021/09/18 08:25:07;;;;;;;;;;;18.50;99.90;;;;;;5056082;28;19917;-79
2021/09/18 08:27:33;;;;;;;;;;;18.70;99.90;;;;;;5037352;28;19924;-78
2021/09/18 08:29:59;;;;;;;;;;;18.90;99.90;;;;;;5052447;28;19952;-76
2021/09/18 08:32:24;;;;;;;;;;;19.20;99.90;;;;;;5054416;28;20250;-79
2021/09/18 08:34:50;;;;;;;;;;;19.40;99.90;;;;;;5055080;28;19948;-78
2021/09/18 08:37:16;;;;;;;;;;;19.50;99.90;;;;;;5072330;28;19920;-78
2021/09/18 08:39:42;;;;;;;;;;;19.50;99.90;;;;;;5054142;28;19967;-78
2021/09/18 08:42:09;;;;;;;;;;;19.40;99.90;;;;;;5055172;28;19956;-79
2021/09/18 08:44:35;;;;;;;;;;;19.50;99.90;;;;;;5054309;28;19914;-78
2021/09/18 08:47:01;;;;;;;;;;;19.50;99.90;;;;;;5043833;28;19983;-78
2021/09/18 08:49:27;;;;;;;;;;;19.50;99.90;;;;;;5069700;28;20307;-78
2021/09/18 08:51:53;;;;;;;;;;;19.60;99.90;;;;;;5054648;28;19996;-78
2021/09/18 08:54:18;;;;;;;;;;;19.70;99.90;;;;;;5051749;28;19964;-78
2021/09/18 08:56:44;;;;;;;;;;;19.80;99.90;;;;;;5040114;28;19920;-79
2021/09/18 08:59:09;;;;;;;;;;;19.80;99.90;;;;;;5070470;28;20378;-78
2021/09/18 09:01:35;;;;;;;;;;;19.80;99.90;;;;;;5057527;28;19962;-78
2021/09/18 09:04:04;;;;;;;;;;;19.70;99.90;;;;;;5055262;28;19978;-78
2021/09/18 09:06:50;;;;;;;;;;;19.80;99.90;;;;;;5037135;28;19916;-75
2021/09/18 09:09:16;;;;;;;;;;;19.90;99.90;;;;;;5037981;28;20335;-78
2021/09/18 09:11:49;;;;;;;;;;;20.00;99.90;;;;;;5057650;28;19913;-77
2021/09/18 09:14:14;;;;;;;;;;;20.20;99.90;;;;;;5042969;28;20020;-77
2021/09/18 09:16:54;;;;;;;;;;;20.30;99.90;;;;;;5058915;28;20016;-78
2021/09/18 09:19:20;;;;;;;;;;;20.30;99.90;;;;;;5047521;28;19925;-77
2021/09/18 09:21:53;;;;;;;;;;;20.50;99.90;;;;;;5073522;28;19952;-76
2021/09/18 09:24:20;;;;;;;;;;;20.60;99.90;;;;;;5062290;28;19924;-78
2021/09/18 09:27:04;;;;;;;;;;;20.60;99.90;;;;;;5054491;28;21275;-77
2021/09/18 09:29:50;;;;;;;;;;;20.70;99.90;;;;;;5037865;28;19960;-77
2021/09/18 09:32:29;;;;;;;;;;;20.80;99.90;;;;;;5053308;28;20278;-78
2021/09/18 09:34:55;;;;;;;;;;;20.90;99.90;;;;;;5055091;28;19913;-78
2021/09/18 09:37:21;;;;;;;;;;;21.20;99.90;;;;;;5050199;28;21987;-77
2021/09/18 09:39:55;;;;;;;;;;;21.30;99.90;;;;;;5053362;28;19925;-77
2021/09/18 09:42:29;;;;;;;;;;;21.40;99.90;;;;;;5035047;28;20268;-77
2021/09/18 09:45:11;;;;;;;;;;;21.50;99.90;;;;;;5048047;28;20209;-77
2021/09/18 09:47:37;;;;;;;;;;;21.50;99.90;;;;;;5054072;28;19920;-77
2021/09/18 09:50:03;;;;;;;;;;;21.50;99.90;;;;;;5044332;28;20031;-77
2021/09/18 09:52:33;;;;;;;;;;;21.30;99.90;;;;;;5033691;28;19927;-77
2021/09/18 09:55:09;;;;;;;;;;;21.20;99.90;;;;;;5054692;28;20307;-76
2021/09/18 09:57:35;;;;;;;;;;;21.10;99.90;;;;;;5036065;28;19921;-77
2021/09/18 10:00:03;;;;;;;;;;;20.90;99.90;;;;;;5033834;28;19925;-77
2021/09/18 10:02:29;;;;;;;;;;;20.80;99.90;;;;;;5050285;28;19952;-77
2021/09/18 10:04:55;;;;;;;;;;;20.80;99.90;;;;;;5055184;28;19958;-76
2021/09/18 10:07:21;;;;;;;;;;;20.70;99.90;;;;;;5054698;28;19913;-77
2021/09/18 10:09:50;;;;;;;;;;;20.70;99.90;;;;;;5048925;28;19967;-77
2021/09/18 10:12:16;;;;;;;;;;;20.60;99.90;;;;;;5044758;28;19917;-77
2021/09/18 10:14:45;;;;;;;;;;;20.40;99.90;;;;;;5039476;28;19913;-77
2021/09/18 10:17:11;;;;;;;;;;;20.40;99.90;;;;;;5031925;28;19970;-77
2021/09/18 10:24:51;;;;;;;;;;;20.40;99.90;;;;;;5050652;28;19923;-76
2021/09/18 10:27:22;;;;;;;;;;;20.40;99.90;;;;;;5053907;28;19913;-77
2021/09/18 10:29:48;;;;;;;;;;;20.40;99.90;;;;;;5046508;28;19925;-76
2021/09/18 10:32:15;;;;;;;;;;;20.40;99.90;;;;;;5037667;28;19913;-76
2021/09/18 10:34:41;;;;;;;;;;;20.40;99.90;;;;;;5039171;28;19963;-77
2021/09/18 10:37:07;;;;;;;;;;;20.40;99.90;;;;;;5033926;28;19920;-77
2021/09/18 10:39:33;;;;;;;;;;;20.40;99.90;;;;;;5051995;28;19921;-77
2021/09/18 10:42:00;;;;;;;;;;;20.60;99.90;;;;;;5063082;28;19958;-77
2021/09/18 10:44:45;;;;;;;;;;;20.70;99.90;;;;;;5053068;28;19913;-76
2021/09/18 10:47:11;;;;;;;;;;;20.80;99.90;;;;;;5035101;28;19920;-76
2021/09/18 10:49:40;;;;;;;;;;;20.80;99.90;;;;;;5057234;28;19942;-77
2021/09/18 10:52:18;;;;;;;;;;;20.70;99.90;;;;;;5036898;28;20275;-77
2021/09/18 10:55:02;;;;;;;;;;;20.70;99.90;;;;;;5050386;28;19970;-77
2021/09/18 10:57:42;;;;;;;;;;;20.70;99.90;;;;;;5046550;28;19936;-76
2021/09/18 11:00:14;;;;;;;;;;;20.70;99.90;;;;;;5048294;28;19916;-76
2021/09/18 11:02:45;;;;;;;;;;;20.70;99.90;;;;;;5036167;28;19909;-76
2021/09/18 11:05:30;;;;;;;;;;;20.80;99.90;;;;;;5038264;28;19960;-77
2021/09/18 11:08:00;;;;;;;;;;;20.80;99.90;;;;;;5067427;28;19919;-77
2021/09/18 11:10:29;;;;;;;;;;;20.90;99.90;;;;;;5057130;28;19916;-77
2021/09/18 11:13:06;;;;;;;;;;;20.80;99.90;;;;;;5055986;28;19940;-77
2021/09/18 11:15:39;;;;;;;;;;;20.80;99.90;;;;;;5048689;28;19931;-77
2021/09/18 11:18:15;;;;;;;;;;;20.80;99.90;;;;;;5056772;28;19920;-77
2021/09/18 11:20:41;;;;;;;;;;;20.80;99.90;;;;;;5057075;28;19913;-78
2021/09/18 11:23:07;;;;;;;;;;;20.70;99.90;;;;;;5035123;28;19921;-77
2021/09/18 11:25:34;;;;;;;;;;;20.70;99.90;;;;;;5030024;28;19924;-77
2021/09/18 11:28:00;;;;;;;;;;;20.70;99.90;;;;;;5032890;28;19920;-77
2021/09/18 11:30:38;;;;;;;;;;;20.70;99.90;;;;;;5035052;28;19913;-76
2021/09/18 11:33:04;;;;;;;;;;;20.70;99.90;;;;;;5037669;28;19944;-77
2021/09/18 11:35:29;;;;;;;;;;;20.70;99.90;;;;;;5031790;28;20263;-77
2021/09/18 11:37:59;;;;;;;;;;;20.70;99.90;;;;;;5029072;28;19973;-77
2021/09/18 11:40:25;;;;;;;;;;;20.80;99.90;;;;;;5037919;28;19913;-77
2021/09/18 11:42:55;;;;;;;;;;;20.90;99.90;;;;;;5034063;28;20311;-77
2021/09/18 11:45:22;;;;;;;;;;;20.90;99.90;;;;;;5032072;28;19917;-77
2021/09/18 11:47:52;;;;;;;;;;;20.90;99.90;;;;;;5019977;28;19917;-77
2021/09/18 11:50:25;;;;;;;;;;;20.90;99.90;;;;;;5030455;28;19913;-77
2021/09/18 11:52:56;;;;;;;;;;;20.90;99.90;;;;;;5042803;28;20258;-76
2021/09/18 11:55:29;;;;;;;;;;;20.90;99.90;;;;;;5032116;28;19913;-77
2021/09/18 11:57:58;;;;;;;;;;;21.00;99.90;;;;;;5068122;28;20212;-77
2021/09/18 12:00:24;;;;;;;;;;;21.00;99.90;;;;;;5037324;28;19921;-77
2021/09/18 12:02:54;;;;;;;;;;;21.00;99.90;;;;;;5035673;28;19909;-77
2021/09/18 12:05:20;;;;;;;;;;;21.00;99.90;;;;;;5026663;28;20008;-75
2021/09/18 12:07:46;;;;;;;;;;;21.00;99.90;;;;;;5035231;28;20011;-77
2021/09/18 12:10:14;;;;;;;;;;;21.00;99.90;;;;;;5036850;28;19916;-77
2021/09/18 12:12:39;;;;;;;;;;;21.00;99.90;;;;;;5024640;28;19945;-77
2021/09/18 12:15:05;;;;;;;;;;;21.00;99.90;;;;;;5032374;28;20324;-77
2021/09/18 12:17:36;;;;;;;;;;;21.00;99.90;;;;;;5024068;28;19920;-76
2021/09/18 12:20:06;;;;;;;;;;;21.00;99.90;;;;;;5034122;28;20213;-76
2021/09/18 12:22:32;;;;;;;;;;;21.00;99.90;;;;;;5031539;28;19952;-76
2021/09/18 12:24:57;;;;;;;;;;;21.00;99.90;;;;;;5035321;28;19917;-77
2021/09/18 12:27:30;;;;;;;;;;;21.00;99.90;;;;;;5055205;28;19956;-77
2021/09/18 12:30:26;;;;;;;;;;;21.00;99.90;;;;;;5037996;28;19909;-76
2021/09/18 12:33:21;;;;;;;;;;;21.00;99.90;;;;;;5061442;28;20288;-77
2021/09/18 12:35:48;;;;;;;;;;;21.10;99.90;;;;;;5034339;28;19915;-76
2021/09/18 12:38:15;;;;;;;;;;;21.10;99.90;;;;;;5048983;28;19924;-76
2021/09/18 12:40:43;;;;;;;;;;;21.10;99.90;;;;;;5035317;28;20336;-77
2021/09/18 12:43:19;;;;;;;;;;;21.10;99.90;;;;;;5049337;28;19916;-77
2021/09/18 12:45:46;;;;;;;;;;;21.10;99.90;;;;;;5033323;28;19931;-76
2021/09/18 12:48:13;;;;;;;;;;;21.10;99.90;;;;;;5046171;28;20017;-77
2021/09/18 12:50:50;;;;;;;;;;;21.10;99.90;;;;;;5052279;28;19923;-77
2021/09/18 12:53:16;;;;;;;;;;;21.10;99.90;;;;;;5043862;28;20015;-76
2021/09/18 12:56:01;;;;;;;;;;;21.20;99.90;;;;;;5047941;28;20025;-77
2021/09/18 12:58:28;;;;;;;;;;;21.20;99.90;;;;;;5050246;28;20322;-77
2021/09/18 13:01:01;;;;;;;;;;;21.20;99.90;;;;;;5055128;28;20250;-76
2021/09/18 13:03:26;;;;;;;;;;;21.20;99.90;;;;;;5049495;28;20235;-76
2021/09/18 13:06:04;;;;;;;;;;;21.30;99.90;;;;;;5054439;28;20024;-77
2021/09/18 13:08:42;;;;;;;;;;;21.20;99.90;;;;;;5032911;28;20055;-77
2021/09/18 13:11:11;;;;;;;;;;;21.20;99.90;;;;;;5037468;28;20370;-77
2021/09/18 13:13:37;;;;;;;;;;;21.20;99.90;;;;;;5038184;28;19908;-77
2021/09/18 13:16:03;;;;;;;;;;;21.30;99.90;;;;;;5036923;28;19917;-76
2021/09/18 13:18:29;;;;;;;;;;;21.30;99.90;;;;;;5057181;28;19920;-76
2021/09/18 13:20:54;;;;;;;;;;;21.30;99.90;;;;;;5037256;28;19913;-77
2021/09/18 13:23:20;;;;;;;;;;;21.30;99.90;;;;;;5051385;28;19928;-77
2021/09/18 13:25:47;;;;;;;;;;;21.30;99.90;;;;;;5047288;28;20318;-76
2021/09/18 13:28:12;;;;;;;;;;;21.40;99.90;;;;;;5054889;28;19919;-77
2021/09/18 13:30:38;;;;;;;;;;;21.50;99.90;;;;;;5037112;28;19912;-77
2021/09/18 13:33:03;;;;;;;;;;;21.40;99.90;;;;;;5059190;28;19919;-76
2021/09/18 13:35:29;;;;;;;;;;;21.50;99.90;;;;;;5035172;28;19917;-76
2021/09/18 13:37:55;;;;;;;;;;;21.50;99.90;;;;;;5049063;28;20331;-76
2021/09/18 13:40:20;;;;;;;;;;;21.50;99.90;;;;;;5049506;28;19923;-77
2021/09/18 13:42:46;;;;;;;;;;;21.60;99.90;;;;;;5053263;28;19913;-76
2021/09/18 13:45:11;;;;;;;;;;;21.50;99.90;;;;;;5058293;28;20303;-77
2021/09/18 13:47:37;;;;;;;;;;;21.50;99.90;;;;;;5054563;28;19913;-76
2021/09/18 13:50:03;;;;;;;;;;;21.40;99.90;;;;;;5054629;28;20312;-77
2021/09/18 13:52:29;;;;;;;;;;;21.40;99.90;;;;;;5038776;28;19925;-76
2021/09/18 13:54:54;;;;;;;;;;;21.40;99.90;;;;;;5046180;28;20223;-77
2021/09/18 13:57:20;;;;;;;;;;;21.40;99.90;;;;;;5053490;28;19913;-77
2021/09/18 13:59:47;;;;;;;;;;;21.40;99.90;;;;;;5053546;28;19992;-77
2021/09/18 14:02:13;;;;;;;;;;;21.40;99.90;;;;;;5026511;28;20414;-77
2021/09/18 14:04:38;;;;;;;;;;;21.40;99.90;;;;;;5053107;28;19962;-77
2021/09/18 14:07:04;;;;;;;;;;;21.50;99.90;;;;;;5055678;28;19916;-79
2021/09/18 14:09:30;;;;;;;;;;;21.40;99.90;;;;;;5028676;28;19917;-77
2021/09/18 14:11:55;;;;;;;;;;;21.30;99.90;;;;;;5053134;28;19913;-77
2021/09/18 14:14:21;;;;;;;;;;;21.30;99.90;;;;;;5054775;28;20314;-77
2021/09/18 14:16:49;;;;;;;;;;;21.30;99.90;;;;;;5034894;28;20007;-76
2021/09/18 14:19:15;;;;;;;;;;;21.20;99.90;;;;;;5053147;28;19916;-76
2021/09/18 14:21:41;;;;;;;;;;;21.30;99.90;;;;;;5055347;28;19924;-76